zaterdag 20 januari 2018 | Home | Bestenlijsten | Nieuws | Uitslagen | Videos | Wedstrijden | VZA Ranglijsten | Weer |
 
 
Recent nieuws meer nieuws
31-12: Erwin Harmes en Marlies Kort domineren Tankloop
30-12: Yunis Stitan verrassende winnaar van 47e Kerstloop
23-12: Oegandees Aggrey Agaba wint 18e Aagtekerkerun
22-12: De beste stuurlui staan aan wal
21-12: Verslag van de 18e Aagtekerkerun
11-12: De ene crosser is de andere niet
Wedstrijdagenda meer wedstrijden
za 20-01: 1e Dow trimloop Terneuzen
za 27-01: 4e Scheldesport cross Westdorpe
za 27-01: Eugene Vink Memorial Westdorpe
za 03-02: 20e Rammekensloop Ritthem
za 03-02: Berlaerloop Koewacht
zo 04-02: Midwinter Marathon Apeldoorn
zo 04-02: 27e Midwinter Halve Marathon Cadzand
za 10-02: Erpelkappersloop Axel
za 10-02: 24e Grevelingen cross Bruinisse
zo 11-02: 41e Groet uit Schoorl Run
za 17-02: 13e Zwaarste 10 van Zeeland Westenschouwen
za 17-02: 25 km Scheldeloop Terneuzen
zo 18-02: 7e Kapellecross Kapelle-Biezelinge
za 24-02: Halve van Axel
Recente uitslagen meer uitslagen
za 13-01: 20e Steense Rattenloop Sint Jansteen (123)
za 13-01: 46e Deltacross Westenschouwen (247)
zo 07-01: Scheidsrechtersloop Vlissingen (98)
za 06-01: 57e Wallenloop Goes (134)
za 06-01: Jeff Thuy Memorial Heikant (211)
vr 05-01: Ondoloop Sint Laurens (56)
zo 31-12: Tankloop Westkapelle (418)
zo 31-12: 2e Natuurloop Nieuwvliet (103)
za 30-12: Eindejaarscross Axel (217)
di 26-12: Kerstloop Dishoek (606)
za 16-12: Stratenloop Menheerse Middelharnis
za 16-12: 18e Aagtekerke Run (458)
zo 10-12: Jules Unlimitedloop Breskens (50)
za 09-12: Halve Marathon Terneuzen (142)
 
Zoek tenminste met 3 tekens van wedstrijd, datum, plaats of atleet
Kriekeloop
Clinge, zaterdag 16 december 2017 - Organisatie: VV Clinge
13.8 km
PltsNaam
Tijdkm/umin/km
1  Jette SamsonBerlare50.02Mse   16.549  3:38
2  Sander PostTerneuzen51.32M35   16.067  3:44
3  Sander van DoornTerneuzen53.41Mse   15.424  3:53
4  Gino van BroeckTemse53.57M35   15.348  3:55
5  Wim VercruyssenNieuw-Namen56.47M45   14.582  4:07
6  Jan VermeulenClinge58.04M50   14.259  4:12
7  Matti BuysseStekene1.00.44Mse   13.633  4:24
8  Jeroen van GoethemKloosterzande1.00.47Mse   13.622  4:24
9  Jeroen van DijkKloosterzande1.01.09M35   13.540  4:26
10  Marnix van den BrandeClinge1.01.50Mse   13.391  4:29
11  Geerd De RyckStekene1.03.06M60   13.122  4:34
12  Eddy de CaluweOssenisse1.04.29M50   12.841  4:40
13  Jos WijnsHallaar1.04.43M65   12.794  4:41
14  Hedwig van BeverenMoerbeke1.04.44M50   12.791  4:41
15  Frank BoerebachHoek1.05.09M55   12.709  4:43
16  Saskia VercammenSint-Niklaas1.05.27V40   12.651  4:45
17  Ronny GeleynVerrebroek1.06.41M40   12.417  4:50
18  Ingrid IJsebaertHulst1.07.05V50   12.343  4:52
19  Michiel LippensMoerbeke1.07.27Mse   12.276  4:53
20  Koen KoutstaalHulst1.08.09M60   12.150  4:56
21  Albert van BunderDe Klinge1.08.35M70   12.073  4:58
22  Pascal van HulleMaldegem1.11.09M50   11.637  5:09
23  Frank van AertselaereBurcht1.11.17M55   11.616  5:10
24  Bjorn de BetueSint Jansteen1.11.19M40   11.610  5:10
25  Ben van der KaaRilland1.11.27M50   11.589  5:11
26  Piet PijpelinkTerneuzen1.11.29M50   11.583  5:11
27  Age BaltHulst1.11.37M50   11.562  5:11
28  Renate van HuffelSint Jansteen1.11.46V40   11.537  5:12
29  Sjaak VroonlandLamswaarde1.11.50M60   11.527  5:12
30  Frans VerwilligenHulst1.14.41M60   11.087  5:25
31  Fons de RijckeKloosterzande1.14.45M50   11.077  5:25
32  Bart JanssensMelsele1.14.48M45   11.070  5:25
33  Tony DemaretSint-Kruis-Winkel1.15.01M50   11.038  5:26
34  Jack FolkersmaTerneuzen1.16.58M45   10.758  5:35
35  Marian van DammeClinge1.17.00V50   10.753  5:35
36  Sofie SegersTerhole1.17.11V40   10.728  5:36
37  Els ZweistraTerneuzen1.18.17V55   10.577  5:40
38  Alex van LeuvenSint Jansteen1.18.20M55   10.570  5:41
39  Ko de KoeyerZaamslag1.18.22M70   10.566  5:41
40  Mia ClijmansVosselaar1.20.12V50   10.324  5:49
41  Rudy Vande VeldeWachtebeke1.21.40M45   10.139  5:55
42  Linda van GoolSint-Kruis-Winkel1.21.54V45   10.110  5:56
43  Nienke BoogmansMoerbeke1.24.21Vse   9.816  6:07
44  Erik BollemanAxel1.25.35M45   9.675  6:12
45  Kylie de BeuleHeikant1.25.37Vse   9.671  6:12
46  Karin de BeuleHeikant1.25.38V45   9.669  6:12
47  Kimberly van WaesbergheSint-Pauwels1.29.48Vse   9.220  6:30
48  Tommy DevosHaasdonk1.29.50M35   9.217  6:31
49  Romain BolssensKieldrecht1.31.12M60   9.079  6:37
Mannen: 37 (75.51%) => M35=4 - M40=2 - M45=5 - M50=9 - M55=3 - M60=5 - M65=1 - M70=2 - Mse=6
Vrouwen: 12 (24.49%) => V40=3 - V45=2 - V50=3 - V55=1 - Vse=3
8.2 km
PltsNaam
Tijdkm/umin/km
1  Peter RottierKalken32.30M35   15.138  3:58
2  Martijn KoxWestdorpe33.10M35   14.834  4:03
3  Ronny WagenaerMelsele34.00M45   14.471  4:09
4  Dennis VlassenroodSint Jansteen35.34M35   13.833  4:20
5  Joris NeveEeklo36.02M45   13.654  4:24
6  Joakim van GasseSint-Pauwels36.09Mse   13.610  4:25
7  Allan van AltenAxel36.25M40   13.510  4:26
8  Ralph SchaaljeAxel36.36Mse   13.443  4:28
9  Jolien van LeugenhaegeTemse38.43Vse   12.708  4:43
10  Jos van GrembergheKoewacht39.38M60   12.414  4:50
11  Marc de KeyserMoerbeke39.39M50   12.409  4:50
12  Cliff van WaesbergheBottelare39.56Mse   12.321  4:52
13  Cathy PoppeTerneuzen40.39V40   12.103  4:57
14  Martin NoensKemzeke40.50M50   12.049  4:59
15  Matthieu VerleeSInaai41.00M35   12.000  5:00
16  Hennie DriessenAxel41.07M40   11.966  5:01
17  Stefaan HeirmanMoerbeke41.27M45   11.870  5:03
18  Danny CoenenBeveren41.35M50   11.832  5:04
19  Natasja BooijWalsoorden41.50V45   11.761  5:06
20  Inge de BooijGraauw41.52Vse   11.752  5:06
21  Philip VioenKoewacht42.15Mse   11.645  5:09
22  Patrick RoosenboomZele43.05M50   11.420  5:15
23  Dirk de BosscherLokeren43.07M45   11.411  5:15
24  Cedric de BeeldeSint-Niklaas43.13Mse   11.384  5:16
25  Wim BakkerTerneuzen43.19M65   11.358  5:17
26  Dimitri CuyversStekene43.33M40   11.297  5:19
27  Bennie BouterseTerneuzen43.38M50   11.276  5:19
28  Frits VervaetWalsoorden43.43M60   11.254  5:20
30  Peter SlockVrasene44.37M45   11.027  5:26
31  Stefan de WertClinge45.17M45   10.865  5:31
32  John MarimanClinge45.19M45   10.857  5:32
33  Patrick PauwelsNieuw Namen45.40M50   10.774  5:34
34  Ronald RoctusTerneuzen45.43M50   10.762  5:35
35  Lieke CoenenClinge45.47Vse   10.746  5:35
36  Eef CoenenClinge46.10V40   10.657  5:38
37  Patrick CarlierErtvelde46.40M50   10.543  5:41
38  Wanda ZegersTerneuzen47.31M45   10.354  5:48
39  Ron SalomeKloosterzande48.00M55   10.250  5:51
40  Lotje BuijsTerhole48.10V35   10.215  5:52
41  Claudia PalinckPuivelde48.14Vse   10.200  5:53
42  Ronny SmetSinaai48.16M55   10.193  5:53
43  Remco EveraardKloosterzande49.23M35   9.963  6:01
44  Daan DielemanZaamslag50.36M65   9.723  6:10
45  Annelies RomboutKieldrecht50.52V60   9.672  6:12
46  Nelly PlasschaertHulst50.56V55   9.660  6:13
47  Arlette HendrickxHallaar51.16V60   9.597  6:15
48  Jean-Pierre D'hauwZelzate52.56M65   9.295  6:27
49  Margo HermansOssenisse53.11V45   9.251  6:29
50  Katrien Ras-DrumontClinge 53.28V35   9.202  6:31
51  Pascale de BotClinge53.30V40   9.196  6:31
52  Antoine Mathysde Pinte55.00M70   8.945  6:42
53  Nele de LoosClinge55.59Vse   8.788  6:50
54  Claire MartensBoekhoute56.00V50   8.786  6:50
55  Mariette van GuchtSinaai56.33V65   8.700  6:54
56  Rudi van WaesbergheSint-Pauwels58.06M60   8.468  7:05
57  Rita BylBurcht58.30V60   8.410  7:08
58  Wim CoppietersStrombeek-bever1.04.09M80   7.670  7:49
59  Greta de VijlderSint-Gillis-Waas1.04.10V70   7.668  7:50
60  Annelore de BosscherLokeren1.21.14Vse   6.057  9:54
61  Aime SamsonSint-Pauwels1.21.15M65   6.055  9:55
62  Isabelle JacobsLokeren1.21.58V50   6.002  0:00
Mannen: 40 (65.57%) => M35=5 - M40=3 - M45=8 - M50=8 - M55=2 - M60=3 - M65=4 - M70=1 - M80=1 - Mse=5
Vrouwen: 21 (34.43%) => V35=2 - V40=3 - V45=2 - V50=2 - V55=1 - V60=3 - V65=1 - V70=1 - Vse=6

Snelheid en tempo zijn berekend op de vermelde afstand. Bij een onjuiste afstand wijken deze uiteraard af!

Fouten melden via info@atletiekzeeland.nl Categorie fout? Mail dan geboortedatum. (geldt alleen voor Zeeuwen)

De server had 0.413 seconden nodig om deze lijst met 110 prestaties samen te stellen.

Terug naar boven

Vorige uitslagen
DatumWedstrijdPlaatsVereniging Hits
17-12-2016 KriekeloopClingeVV Clinge0
19-12-2015 KriekeloopClingeVV Clinge741

 
Recente Zeeuwse prestaties meer prestaties
14-01: 46e Halve van Egmond (14)
17-12: 12e Spark marathon Spijkenisse (11)
26-11: Halve Marathon Tarragona (1)
26-11: Firenze Marathon Florence (4)
Recente video(s)
Atletiek Zeeland © 2018